This is the latest recevied weather packets stored in our database for station/object DD3UTS-13. If no packets are shown the sender has not sent any weather packets the latest 10 day(s).
| Time | Temp. | Humidity | Pressure | Rain* | Wind** | Luminosity | Snow |
|---|---|---|---|---|---|---|---|
| 1777675832 | 9.44° C | 64% | 1024.5 hPa | 0 mm | - | 0 W/m² | - |
| 1777675532 | 8.89° C | 65% | 1024.5 hPa | 0 mm | - | 0 W/m² | - |
| 1777675233 | 8.89° C | 63% | 1024.5 hPa | 0 mm | - | 0 W/m² | - |
| 1777674932 | 9.44° C | 62% | 1024.5 hPa | 0 mm | - | 0 W/m² | - |
| 1777674632 | 10.56° C | 60% | 1024.5 hPa | 0 mm | - | 0 W/m² | - |
| 1777674334 | 10.56° C | 61% | 1024.5 hPa | 0 mm | - | 0 W/m² | - |
| 1777674033 | 9.44° C | 63% | 1024.6 hPa | 0 mm | - | 0 W/m² | - |
| 1777673732 | 8.89° C | 66% | 1024.6 hPa | 0 mm | - | 0 W/m² | - |
| 1777673431 | 8.33° C | 67% | 1024.6 hPa | 0 mm | - | 0 W/m² | - |
| 1777673132 | 8.33° C | 66% | 1024.6 hPa | 0 mm | - | 0 W/m² | - |
| 1777672832 | 8.33° C | 64% | 1024.6 hPa | 0 mm | - | 0 W/m² | - |
| 1777672532 | 9.44° C | 62% | 1024.7 hPa | 0 mm | - | 0 W/m² | - |
| 1777672231 | 10.56° C | 59% | 1024.7 hPa | 0 mm | - | 0 W/m² | - |
| 1777671932 | 11.67° C | 56% | 1024.6 hPa | 0 mm | - | 0 W/m² | - |
| 1777671632 | 12.22° C | 55% | 1024.7 hPa | 0 mm | - | 0 W/m² | - |
| 1777671332 | 12.22° C | 54% | 1024.7 hPa | 0 mm | - | 0 W/m² | - |
| 1777671031 | 12.22° C | 55% | 1024.7 hPa | 0 mm | - | 0 W/m² | - |
| 1777670732 | 11.67° C | 57% | 1024.7 hPa | 0 mm | - | 0 W/m² | - |
| 1777670432 | 11.11° C | 58% | 1024.8 hPa | 0 mm | - | 0 W/m² | - |
| 1777670131 | 11.11° C | 57% | 1024.8 hPa | 0 mm | - | 0 W/m² | - |
| 1777669831 | 11.11° C | 57% | 1024.8 hPa | 0 mm | - | 0 W/m² | - |
| 1777669532 | 11.67° C | 56% | 1024.8 hPa | 0 mm | - | 0 W/m² | - |
| 1777669232 | 12.22° C | 55% | 1024.9 hPa | 0 mm | - | 0 W/m² | - |
| 1777668932 | 12.22° C | 55% | 1024.9 hPa | 0 mm | - | 0 W/m² | - |
| 1777668632 | 11.67° C | 56% | 1024.9 hPa | 0 mm | - | 0 W/m² | - |
* Rain latest 24 hours (hover to see other rain measurements)
** Current wind speed in m/s (hover to see current wind gust speed)